Time;durP1;ratioP1;P1;durP2;ratioP2;P2;SDS_P1;SDS_P2;PMS_P1;PMS_P2;Temp;Humidity;BMP_temperature;BMP_pressure;BME280_temperature;BME280_humidity;BME280_pressure;Samples;Min_cycle;Max_cycle;Signal;HPM_P1;HPM_P2
2021/07/12 02:46:21;;;;;;;6.32;4.80;;;14.10;99.90;;;;;;5556514;22;89511;-85
2021/07/12 02:48:46;;;;;;;4.45;4.05;;;14.10;99.90;;;;;;4905430;28;86700;-87
2021/07/12 02:51:16;;;;;;;6.65;5.20;;;14.20;99.90;;;;;;4907993;28;86442;-87
2021/07/12 02:53:53;;;;;;;5.00;4.50;;;14.20;99.90;;;;;;4902541;28;88590;-86
2021/07/12 02:56:18;;;;;;;5.57;4.80;;;14.20;99.90;;;;;;4904423;28;87282;-88
2021/07/12 02:58:45;;;;;;;5.55;4.45;;;14.10;99.90;;;;;;4907159;28;88081;-88
2021/07/12 03:01:11;;;;;;;7.85;5.07;;;14.20;99.90;;;;;;4906649;28;87044;-86
2021/07/12 03:03:37;;;;;;;6.93;4.45;;;14.10;99.90;;;;;;4903836;28;87724;-86
2021/07/12 03:06:12;;;;;;;5.93;4.38;;;14.10;99.90;;;;;;4906023;28;87655;-86
2021/07/12 03:09:04;;;;;;;6.70;4.45;;;14.10;99.90;;;;;;4909552;28;87082;-87
2021/07/12 03:11:54;;;;;;;5.63;5.05;;;14.10;99.90;;;;;;4888245;28;87138;-88
2021/07/12 03:14:41;;;;;;;11.90;5.65;;;14.00;99.90;;;;;;4903140;28;87255;-86
2021/07/12 03:17:08;;;;;;;5.50;4.72;;;14.00;99.90;;;;;;4902118;28;86922;-87
2021/07/12 03:19:38;;;;;;;4.68;4.28;;;14.00;99.90;;;;;;4906281;28;87033;-87
2021/07/12 03:22:08;;;;;;;6.47;4.78;;;14.00;99.90;;;;;;4898533;28;87001;-85
2021/07/12 03:24:38;;;;;;;7.13;4.70;;;14.00;99.90;;;;;;4907292;28;89626;-84
2021/07/12 03:27:05;;;;;;;5.07;4.25;;;13.90;99.90;;;;;;4907196;28;87312;-84
2021/07/12 03:29:38;;;;;;;8.55;4.30;;;14.00;99.90;;;;;;4906283;28;86511;-88
2021/07/12 03:32:05;;;;;;;5.18;4.53;;;14.00;99.90;;;;;;4907956;28;86920;-86
2021/07/12 03:34:32;;;;;;;5.32;4.82;;;14.00;99.90;;;;;;4907213;28;88642;-86
2021/07/12 03:36:59;;;;;;;5.20;4.38;;;14.00;99.90;;;;;;4906579;28;86970;-85
2021/07/12 03:39:29;;;;;;;5.70;4.70;;;14.00;99.90;;;;;;4906129;28;86878;-84
2021/07/12 03:41:57;;;;;;;6.43;4.80;;;14.00;99.90;;;;;;4906727;28;86065;-87
2021/07/12 03:44:23;;;;;;;6.03;4.07;;;14.00;99.90;;;;;;4904577;28;88822;-88
2021/07/12 03:46:48;;;;;;;7.00;4.75;;;14.00;99.90;;;;;;4902655;28;86968;-84
2021/07/12 03:49:19;;;;;;;5.15;4.20;;;14.00;99.90;;;;;;4889732;28;88026;-87
2021/07/12 03:51:47;;;;;;;4.57;4.05;;;14.00;99.90;;;;;;4891089;28;87064;-88
2021/07/12 03:54:14;;;;;;;4.20;3.80;;;14.00;99.90;;;;;;4889677;28;87688;-88
2021/07/12 03:56:40;;;;;;;5.93;4.35;;;14.00;99.90;;;;;;4890824;28;87527;-87
2021/07/12 03:59:06;;;;;;;6.55;4.65;;;14.00;99.90;;;;;;4890769;28;86620;-88
2021/07/12 04:01:31;;;;;;;7.40;4.10;;;14.00;99.90;;;;;;4887531;28;86900;-87
2021/07/12 04:03:57;;;;;;;5.57;4.15;;;14.00;99.90;;;;;;4872986;28;87107;-85
2021/07/12 04:06:23;;;;;;;7.70;4.53;;;14.10;99.90;;;;;;4888685;28;86318;-86
2021/07/12 04:08:49;;;;;;;6.22;4.50;;;14.10;99.90;;;;;;4891057;28;87019;-88
2021/07/12 04:11:16;;;;;;;5.60;4.70;;;14.10;99.90;;;;;;4893796;28;86689;-87
2021/07/12 04:13:42;;;;;;;5.43;3.72;;;14.20;99.90;;;;;;4895909;28;88455;-85
2021/07/12 04:16:08;;;;;;;6.90;4.03;;;14.20;99.90;;;;;;4882724;28;87996;-86
2021/07/12 04:18:35;;;;;;;6.10;4.15;;;14.20;99.90;;;;;;4886328;28;86964;-87
2021/07/12 04:21:01;;;;;;;6.10;4.07;;;14.30;99.90;;;;;;4890063;28;87040;-86
2021/07/12 04:23:27;;;;;;;8.35;3.95;;;14.40;99.90;;;;;;4888145;28;87721;-84
2021/07/12 04:25:53;;;;;;;4.95;3.83;;;14.40;99.90;;;;;;4886147;28;88169;-85
2021/07/12 04:28:19;;;;;;;6.15;4.10;;;14.50;99.90;;;;;;4887187;28;86656;-88
2021/07/12 04:30:44;;;;;;;4.35;3.95;;;14.60;99.90;;;;;;4871965;28;85479;-87
2021/07/12 04:33:10;;;;;;;4.00;3.60;;;14.70;99.90;;;;;;4888261;28;87713;-85
2021/07/12 04:35:36;;;;;;;4.15;3.50;;;14.80;99.90;;;;;;4892059;28;87028;-87
2021/07/12 04:38:01;;;;;;;5.65;3.90;;;14.90;99.90;;;;;;4884731;28;88055;-84
2021/07/12 04:40:27;;;;;;;5.03;3.78;;;15.00;99.90;;;;;;4887921;28;86717;-84
2021/07/12 04:42:53;;;;;;;4.95;4.45;;;;;;;;;;4887832;28;88162;-87
2021/07/12 04:45:19;;;;;;;5.45;4.03;;;15.10;99.90;;;;;;4891257;28;86767;-86
2021/07/12 04:47:45;;;;;;;5.75;3.90;;;15.20;99.90;;;;;;4895735;28;87074;-88
2021/07/12 04:50:11;;;;;;;8.25;3.80;;;15.30;99.90;;;;;;4890924;28;87039;-85
2021/07/12 04:52:38;;;;;;;4.05;3.50;;;15.40;99.90;;;;;;4907518;28;87086;-87
2021/07/12 04:55:08;;;;;;;5.45;3.33;;;15.50;99.90;;;;;;4901342;28;86945;-86
2021/07/12 04:57:34;;;;;;;3.87;3.20;;;15.60;99.90;;;;;;4902910;28;87117;-89
2021/07/12 05:00:01;;;;;;;3.35;3.05;;;15.70;99.90;;;;;;4905042;28;87169;-88
2021/07/12 05:02:27;;;;;;;3.90;3.28;;;15.90;99.90;;;;;;4904749;28;88477;-87
2021/07/12 05:04:54;;;;;;;5.10;3.40;;;16.00;99.90;;;;;;4904308;28;88851;-85
2021/07/12 05:07:19;;;;;;;4.03;3.25;;;16.10;99.90;;;;;;4909340;28;86445;-85
2021/07/12 05:09:45;;;;;;;4.18;3.70;;;16.30;99.90;;;;;;4909209;28;87735;-87
2021/07/12 05:12:13;;;;;;;5.20;3.35;;;16.40;99.90;;;;;;4906382;28;87135;-86
2021/07/12 05:14:40;;;;;;;5.40;3.47;;;16.40;99.90;;;;;;4907821;28;87063;-85
2021/07/12 05:17:06;;;;;;;6.20;3.50;;;16.50;99.90;;;;;;4906457;28;86828;-86
2021/07/12 05:19:33;;;;;;;5.43;3.50;;;16.60;99.90;;;;;;4905626;28;86321;-84
2021/07/12 05:21:59;;;;;;;5.15;3.10;;;16.70;99.90;;;;;;4913980;28;87266;-85
2021/07/12 05:24:25;;;;;;;4.05;3.20;;;16.80;99.90;;;;;;4908676;28;87341;-86
2021/07/12 05:26:51;;;;;;;4.40;3.30;;;16.90;99.90;;;;;;4917392;28;87951;-87
2021/07/12 05:29:18;;;;;;;4.63;3.58;;;17.00;99.90;;;;;;4916470;28;87013;-87
2021/07/12 05:31:44;;;;;;;4.75;3.53;;;17.00;99.90;;;;;;4909100;28;87685;-89
2021/07/12 05:34:10;;;;;;;4.78;3.40;;;17.10;99.90;;;;;;4894999;28;88599;-89
2021/07/12 05:36:36;;;;;;;3.58;3.13;;;17.20;99.90;;;;;;4912093;28;86851;-85
2021/07/12 05:39:02;;;;;;;3.75;3.22;;;17.30;99.90;;;;;;4919529;28;86982;-87
2021/07/12 05:41:28;;;;;;;7.32;3.83;;;17.40;99.90;;;;;;4911143;28;87100;-87
2021/07/12 05:43:53;;;;;;;6.18;3.60;;;17.40;99.90;;;;;;4913526;28;86125;-85
2021/07/12 05:46:19;;;;;;;5.00;3.25;;;17.60;99.90;;;;;;4899078;28;86755;-86
2021/07/12 05:48:45;;;;;;;4.93;3.42;;;17.60;99.90;;;;;;4910473;28;87147;-88
2021/07/12 05:51:10;;;;;;;3.67;3.38;;;17.70;99.90;;;;;;4909434;28;88084;-85
2021/07/12 05:53:37;;;;;;;4.25;3.85;;;17.80;99.90;;;;;;4911059;28;88755;-85
2021/07/12 05:56:03;;;;;;;4.97;3.60;;;17.90;99.90;;;;;;4910348;28;86840;-88
2021/07/12 05:58:29;;;;;;;4.15;3.08;;;18.00;99.90;;;;;;4911816;28;87153;-88
2021/07/12 06:00:55;;;;;;;4.75;3.10;;;18.10;99.90;;;;;;4909126;28;87551;-88
2021/07/12 06:03:22;;;;;;;3.65;3.22;;;18.20;99.90;;;;;;4908280;28;88097;-86
2021/07/12 06:05:48;;;;;;;3.75;3.20;;;18.40;99.90;;;;;;4907202;28;86940;-86
2021/07/12 06:08:13;;;;;;;3.70;3.38;;;18.50;99.90;;;;;;4907783;28;86466;-88
2021/07/12 06:10:39;;;;;;;5.40;3.95;;;18.60;99.90;;;;;;4910077;28;87299;-89
2021/07/12 06:13:05;;;;;;;4.38;3.30;;;18.80;99.90;;;;;;4910887;28;88151;-87
2021/07/12 06:15:31;;;;;;;5.60;2.80;;;18.90;99.90;;;;;;4909129;28;87951;-87
2021/07/12 06:17:57;;;;;;;3.90;3.00;;;19.00;99.90;;;;;;4903132;28;87077;-88
2021/07/12 06:20:23;;;;;;;3.55;2.75;;;19.10;99.90;;;;;;4908183;28;87793;-87
2021/07/12 06:22:49;;;;;;;3.67;3.38;;;19.10;99.90;;;;;;4909813;28;87729;-86
2021/07/12 06:25:17;;;;;;;4.20;3.30;;;19.10;99.90;;;;;;4908687;28;87061;-89
2021/07/12 06:27:43;;;;;;;4.15;2.92;;;18.90;99.90;;;;;;4894273;28;86252;-87
2021/07/12 06:30:09;;;;;;;3.28;2.80;;;18.90;99.90;;;;;;4905719;28;87606;-89
2021/07/12 06:32:34;;;;;;;5.68;2.85;;;19.00;99.90;;;;;;4906736;28;86934;-87
2021/07/12 06:35:00;;;;;;;3.85;3.55;;;19.10;99.90;;;;;;4907460;28;86986;-88
2021/07/12 06:37:26;;;;;;;3.78;2.95;;;19.20;99.90;;;;;;4905996;28;87000;-88
2021/07/12 06:39:52;;;;;;;3.95;3.30;;;19.10;99.90;;;;;;4905992;28;88107;-86
2021/07/12 06:42:18;;;;;;;4.65;4.25;;;19.00;99.90;;;;;;4907361;28;88303;-89
2021/07/12 06:44:43;;;;;;;5.82;3.20;;;19.10;99.90;;;;;;4907926;28;87083;-86
2021/07/12 06:47:09;;;;;;;3.50;2.95;;;19.20;99.90;;;;;;4908802;28;87192;-85
2021/07/12 06:49:35;;;;;;;3.22;2.85;;;19.30;99.90;;;;;;4910815;28;88005;-86
2021/07/12 06:52:00;;;;;;;2.80;2.58;;;19.40;99.90;;;;;;4908232;28;87124;-87
2021/07/12 06:54:26;;;;;;;2.63;2.42;;;19.50;99.90;;;;;;4910913;28;87038;-88
2021/07/12 06:56:52;;;;;;;3.05;2.80;;;19.50;99.90;;;;;;4921215;28;86196;-86
2021/07/12 06:59:17;;;;;;;3.80;3.50;;;19.60;99.90;;;;;;4910791;28;86929;-88
2021/07/12 07:01:44;;;;;;;4.10;3.00;;;19.70;99.90;;;;;;4909471;28;86917;-87
2021/07/12 07:04:12;;;;;;;3.35;3.05;;;19.70;99.90;;;;;;4910050;28;87994;-85
2021/07/12 07:06:38;;;;;;;3.55;2.95;;;19.80;99.50;;;;;;4909095;28;87728;-86
2021/07/12 07:09:04;;;;;;;3.55;2.83;;;19.90;99.00;;;;;;4912130;28;87676;-87
2021/07/12 07:11:31;;;;;;;3.22;2.92;;;20.00;99.30;;;;;;4910546;28;87693;-86
2021/07/12 07:13:58;;;;;;;2.90;2.58;;;20.10;99.10;;;;;;4914586;28;86911;-87
2021/07/12 07:16:24;;;;;;;3.13;2.92;;;20.40;98.90;;;;;;4911735;28;86945;-86
2021/07/12 07:18:50;;;;;;;3.50;3.20;;;20.50;98.00;;;;;;4922195;28;87076;-86
2021/07/12 07:21:16;;;;;;;3.35;3.05;;;20.60;96.90;;;;;;4908846;28;86341;-87
2021/07/12 07:23:42;;;;;;;3.17;2.88;;;20.60;97.10;;;;;;4912231;28;86835;-87
2021/07/12 07:26:10;;;;;;;4.78;3.03;;;20.70;96.90;;;;;;4917215;28;86816;-86
2021/07/12 07:28:37;;;;;;;3.67;2.75;;;20.90;97.50;;;;;;4915703;28;87765;-87
2021/07/12 07:31:03;;;;;;;3.97;3.20;;;21.00;97.00;;;;;;4917915;28;88368;-85
2021/07/12 07:33:29;;;;;;;5.00;3.28;;;21.10;96.50;;;;;;4913863;28;87302;-87
2021/07/12 07:35:59;;;;;;;2.95;2.75;;;21.10;96.30;;;;;;4911172;28;86927;-88
2021/07/12 07:38:25;;;;;;;3.40;3.10;;;21.20;96.70;;;;;;4912650;28;88313;-86
2021/07/12 07:40:51;;;;;;;5.15;3.15;;;21.30;95.80;;;;;;4907313;28;86822;-87
2021/07/12 07:43:17;;;;;;;3.00;2.70;;;21.40;96.70;;;;;;4906200;28;86887;-87
2021/07/12 07:45:43;;;;;;;6.25;2.60;;;21.50;95.60;;;;;;4908011;28;86170;-86
2021/07/12 07:48:08;;;;;;;4.90;3.25;;;21.60;95.00;;;;;;4893978;28;87307;-86
2021/07/12 07:50:37;;;;;;;3.38;3.00;;;21.80;94.80;;;;;;4888165;28;87150;-86
2021/07/12 07:53:04;;;;;;;5.05;3.00;;;21.80;94.10;;;;;;4887898;28;88035;-89
2021/07/12 07:55:29;;;;;;;4.93;3.00;;;21.90;93.90;;;;;;4889013;28;87061;-89
2021/07/12 07:57:57;;;;;;;4.53;2.80;;;22.00;94.90;;;;;;4873748;28;88458;-87
2021/07/12 08:00:23;;;;;;;2.58;2.38;;;22.10;93.60;;;;;;4900408;28;87113;-88
2021/07/12 08:02:50;;;;;;;2.80;2.60;;;22.30;93.20;;;;;;4888567;28;86666;-86
2021/07/12 08:05:15;;;;;;;4.43;3.00;;;22.30;92.50;;;;;;4894652;28;86463;-87
2021/07/12 08:07:41;;;;;;;3.45;2.75;;;22.50;92.70;;;;;;4888912;28;87609;-86
2021/07/12 08:10:11;;;;;;;2.83;2.63;;;22.60;92.20;;;;;;4888927;28;87334;-87
2021/07/12 08:12:37;;;;;;;3.13;2.83;;;22.60;92.00;;;;;;4893187;28;86879;-86
2021/07/12 08:15:05;;;;;;;2.90;2.70;;;22.80;92.20;;;;;;4887581;28;87125;-86
2021/07/12 08:17:31;;;;;;;3.22;2.80;;;22.90;92.70;;;;;;4888252;28;88118;-88
2021/07/12 08:19:57;;;;;;;2.97;2.50;;;23.10;91.90;;;;;;4879652;28;88784;-88
2021/07/12 08:22:22;;;;;;;3.25;2.90;;;23.20;89.40;;;;;;4889461;28;87073;-88
2021/07/12 08:24:48;;;;;;;3.05;2.75;;;23.40;90.80;;;;;;4887617;28;87055;-85
2021/07/12 08:27:14;;;;;;;3.33;2.97;;;23.50;90.60;;;;;;4896261;28;88282;-87
2021/07/12 08:29:39;;;;;;;3.20;3.00;;;23.60;90.20;;;;;;4887458;28;86993;-88
2021/07/12 08:32:05;;;;;;;3.90;2.63;;;23.80;89.70;;;;;;4887420;28;86553;-87
2021/07/12 08:34:33;;;;;;;4.65;4.25;;;;;;;;;;4888940;28;86404;-87
2021/07/12 08:36:59;;;;;;;3.05;2.83;;;23.90;85.50;;;;;;4892290;28;87251;-87
2021/07/12 08:39:24;;;;;;;2.63;2.42;;;24.10;87.60;;;;;;4891709;28;86963;-87
2021/07/12 08:41:50;;;;;;;3.20;2.90;;;24.40;87.70;;;;;;4890093;28;88057;-88
2021/07/12 08:44:16;;;;;;;3.53;2.90;;;24.70;85.50;;;;;;4892560;28;86904;-86
2021/07/12 08:46:41;;;;;;;2.90;2.70;;;24.90;82.80;;;;;;4895021;28;86990;-88
2021/07/12 08:49:07;;;;;;;3.08;2.83;;;25.20;82.80;;;;;;4889722;28;87106;-87
2021/07/12 08:51:33;;;;;;;3.30;2.70;;;25.40;81.70;;;;;;4892902;28;87007;-88
2021/07/12 08:53:58;;;;;;;3.35;3.05;;;25.70;83.10;;;;;;4900406;28;86549;-89
2021/07/12 08:56:24;;;;;;;4.72;4.22;;;26.20;77.80;;;;;;4892169;28;86995;-88
2021/07/12 08:58:50;;;;;;;2.90;2.70;;;26.30;76.10;;;;;;4892918;28;87071;-89
2021/07/12 09:01:16;;;;;;;3.33;2.45;;;26.70;76.20;;;;;;4890336;28;86797;-89
2021/07/12 09:03:44;;;;;;;3.97;2.60;;;27.10;73.60;;;;;;4890337;28;87109;-88
2021/07/12 09:06:14;;;;;;;3.35;3.05;;;27.80;74.60;;;;;;4889129;28;88073;-90
2021/07/12 09:08:56;;;;;;;4.20;3.63;;;28.30;77.00;;;;;;4898504;28;89272;-88
2021/07/12 09:11:32;;;;;;;5.38;4.97;;;28.80;76.60;;;;;;4882280;28;86883;-88
2021/07/12 09:14:25;;;;;;;3.22;3.03;;;29.70;75.10;;;;;;4889749;28;87808;-89
2021/07/12 09:16:55;;;;;;;4.45;3.65;;;30.70;73.50;;;;;;4888898;28;87724;-88
2021/07/12 09:19:28;;;;;;;5.55;3.60;;;31.50;68.20;;;;;;4902315;28;87459;-87
2021/07/12 09:22:03;;;;;;;4.32;3.47;;;32.10;66.80;;;;;;4891386;28;87017;-89
2021/07/12 09:24:32;;;;;;;6.00;3.92;;;33.20;60.70;;;;;;4891927;28;85643;-87
2021/07/12 09:27:06;;;;;;;3.63;3.33;;;33.90;59.40;;;;;;4897901;28;87226;-89
2021/07/12 09:29:35;;;;;;;3.83;3.50;;;34.60;57.30;;;;;;4884063;28;86580;-89
2021/07/12 09:32:04;;;;;;;3.60;3.30;;;35.70;54.40;;;;;;4890599;28;87898;-88
2021/07/12 09:34:31;;;;;;;3.67;3.40;;;36.90;53.80;;;;;;4886800;28;87732;-88
2021/07/12 09:36:56;;;;;;;4.03;3.42;;;37.90;50.70;;;;;;4903269;28;86523;-91
2021/07/12 09:39:29;;;;;;;3.80;3.50;;;38.60;48.00;;;;;;4907063;28;86608;-91
2021/07/12 09:41:58;;;;;;;3.83;3.47;;;39.50;46.20;;;;;;4906497;28;86277;-93
2021/07/12 09:44:26;;;;;;;5.45;5.07;;;40.60;45.50;;;;;;4908019;28;86215;-89
2021/07/12 09:46:53;;;;;;;4.55;4.07;;;41.40;43.20;;;;;;4913626;28;87049;-89
2021/07/12 09:49:25;;;;;;;3.35;3.15;;;41.90;42.50;;;;;;4913485;28;86774;-92
2021/07/12 09:51:57;;;;;;;5.40;5.10;;;42.80;36.90;;;;;;4912388;28;86235;-91
2021/07/12 09:54:35;;;;;;;6.18;5.57;;;43.30;38.20;;;;;;4910615;28;86331;-90
2021/07/12 09:57:08;;;;;;;23.13;9.77;;;43.40;38.80;;;;;;4904672;28;87929;-88
2021/07/12 09:59:35;;;;;;;6.93;6.13;;;44.30;37.80;;;;;;4909526;28;88361;-89
2021/07/12 10:02:01;;;;;;;6.32;5.90;;;44.60;36.00;;;;;;4909325;28;86645;-88
2021/07/12 10:04:28;;;;;;;4.32;3.97;;;44.60;36.70;;;;;;4911695;28;86333;-91
2021/07/12 10:06:55;;;;;;;6.13;5.82;;;44.80;34.40;;;;;;4906445;28;87780;-90
2021/07/12 10:09:23;;;;;;;4.20;3.90;;;45.00;35.50;;;;;;4906768;28;87350;-88
2021/07/12 10:11:50;;;;;;;5.93;5.55;;;46.20;34.30;;;;;;4911053;28;86548;-91
2021/07/12 10:14:17;;;;;;;5.82;5.53;;;46.40;33.40;;;;;;4907479;28;85650;-90
2021/07/12 10:16:43;;;;;;;6.70;6.10;;;45.90;32.20;;;;;;4906229;28;88051;-91
2021/07/12 10:19:09;;;;;;;6.10;5.80;;;;;;;;;;4913638;28;86316;-89
2021/07/12 10:22:01;;;;;;;4.07;3.80;;;45.50;33.90;;;;;;4906806;28;87575;-91
2021/07/12 10:24:41;;;;;;;6.60;6.30;;;46.10;32.40;;;;;;4906751;28;86738;-91
2021/07/12 10:27:17;;;;;;;6.50;6.20;;;46.50;32.30;;;;;;4913934;28;87179;-90
2021/07/12 10:29:43;;;;;;;9.38;4.57;;;46.50;32.60;;;;;;4906795;28;86177;-91
2021/07/12 10:32:32;;;;;;;6.70;6.20;;;47.00;32.50;;;;;;4911787;28;86342;-88
2021/07/12 10:34:58;;;;;;;;;;;47.30;31.40;;;;;;4909548;28;86887;-91
2021/07/12 10:37:40;;;;;;;6.35;6.05;;;47.40;31.70;;;;;;4912597;28;87211;-91
2021/07/12 10:40:09;;;;;;;6.72;6.35;;;46.90;31.70;;;;;;4914469;28;87357;-91
2021/07/12 10:42:49;;;;;;;;;;;46.90;31.00;;;;;;4905402;28;87110;-86
2021/07/12 10:45:29;;;;;;;6.28;5.97;;;47.40;30.60;;;;;;4888580;28;87024;-87
2021/07/12 10:47:57;;;;;;;5.32;4.82;;;47.20;30.60;;;;;;4896333;28;87965;-86
2021/07/12 10:50:38;;;;;;;6.57;5.72;;;47.00;31.80;;;;;;4899548;28;88273;-87
2021/07/12 10:53:16;;;;;;;6.60;6.22;;;47.00;31.20;;;;;;4905838;28;87203;-88
2021/07/12 10:56:03;;;;;;;7.20;6.55;;;46.50;31.90;;;;;;4901989;28;86978;-86
2021/07/12 10:58:41;;;;;;;4.90;4.50;;;46.50;32.10;;;;;;4898973;28;87476;-89
2021/07/12 11:01:10;;;;;;;6.65;6.22;;;46.90;32.60;;;;;;4902914;28;87338;-86
2021/07/12 11:03:36;;;;;;;4.82;4.53;;;47.50;33.20;;;;;;4905093;28;86950;-89
2021/07/12 11:06:07;;;;;;;7.63;7.03;;;47.90;32.10;;;;;;4903007;28;86474;-87
2021/07/12 11:08:49;;;;;;;6.95;6.55;;;47.80;31.40;;;;;;4901903;28;87468;-87
2021/07/12 11:11:20;;;;;;;5.53;5.03;;;47.90;31.90;;;;;;4905787;28;87121;-90
2021/07/12 11:13:58;;;;;;;6.97;6.63;;;48.50;32.00;;;;;;4903501;28;87933;-87
2021/07/12 11:16:25;;;;;;;7.00;6.60;;;48.60;31.60;;;;;;4907141;28;87050;-86
2021/07/12 11:18:55;;;;;;;4.78;4.47;;;48.90;31.70;;;;;;4903276;28;88221;-87
2021/07/12 11:21:33;;;;;;;5.13;4.70;;;48.60;30.00;;;;;;4905210;28;87197;-87
2021/07/12 11:24:11;;;;;;;7.60;7.10;;;48.50;30.20;;;;;;4903937;28;86947;-86
2021/07/12 11:26:39;;;;;;;6.70;6.40;;;48.60;31.30;;;;;;4896086;28;86992;-87
2021/07/12 11:29:15;;;;;;;7.10;6.70;;;48.80;31.50;;;;;;4903601;28;87429;-87
2021/07/12 11:31:44;;;;;;;4.90;4.60;;;49.30;31.40;;;;;;4915191;28;89094;-87
2021/07/12 11:34:19;;;;;;;4.53;4.32;;;49.60;30.00;;;;;;4907315;28;87028;-87
2021/07/12 11:36:52;;;;;;;5.28;4.97;;;49.80;29.90;;;;;;4904046;28;86980;-88
2021/07/12 11:39:20;;;;;;;4.80;4.60;;;49.80;30.40;;;;;;4902427;28;88999;-88
2021/07/12 11:41:46;;;;;;;7.80;7.20;;;49.30;29.60;;;;;;4904598;28;87871;-87
2021/07/12 11:44:14;;;;;;;7.18;6.78;;;49.40;30.20;;;;;;4914445;28;87060;-88
2021/07/12 11:46:40;;;;;;;4.85;4.65;;;48.70;30.70;;;;;;4903282;28;87024;-87
2021/07/12 11:49:13;;;;;;;7.28;6.97;;;48.80;30.20;;;;;;4903386;28;87398;-87
2021/07/12 11:51:40;;;;;;;4.72;4.43;;;48.70;30.50;;;;;;4906122;28;88324;-86
2021/07/12 11:54:20;;;;;;;7.30;6.90;;;47.30;30.90;;;;;;4910974;28;86902;-87
2021/07/12 11:57:04;;;;;;;4.93;4.63;;;46.20;31.80;;;;;;4904319;28;86275;-86
2021/07/12 11:59:31;;;;;;;6.97;6.57;;;46.70;31.60;;;;;;4903093;28;87073;-86
2021/07/12 12:02:11;;;;;;;6.97;6.47;;;46.90;30.50;;;;;;4910674;28;87089;-87
2021/07/12 12:04:49;;;;;;;4.50;4.30;;;47.10;31.00;;;;;;4906610;28;87940;-87
2021/07/12 12:07:23;;;;;;;7.10;6.70;;;46.80;30.60;;;;;;4912718;28;86887;-87
2021/07/12 12:09:55;;;;;;;7.10;6.80;;;46.70;31.20;;;;;;4899944;28;87595;-86
2021/07/12 12:12:37;;;;;;;6.57;6.28;;;46.10;31.20;;;;;;4903300;28;86967;-87
2021/07/12 12:15:10;;;;;;;7.03;6.53;;;46.20;31.90;;;;;;4903051;28;87086;-88
2021/07/12 12:17:39;;;;;;;6.40;6.10;;;45.80;31.40;;;;;;4897501;28;86970;-87
2021/07/12 12:20:10;;;;;;;4.35;4.05;;;45.50;31.60;;;;;;4902810;28;86994;-86
2021/07/12 12:22:36;;;;;;;6.22;5.78;;;44.70;32.10;;;;;;4913269;28;88384;-86
2021/07/12 12:25:04;;;;;;;6.25;5.95;;;44.20;33.00;;;;;;4912864;28;87036;-86
2021/07/12 12:27:30;;;;;;;3.80;3.60;;;42.80;33.00;;;;;;4905565;28;87027;-86
2021/07/12 12:29:56;;;;;;;6.10;5.80;;;42.00;34.00;;;;;;4902897;28;88002;-87
2021/07/12 12:32:55;;;;;;;3.80;3.60;;;42.20;33.90;;;;;;4902854;28;87489;-86
2021/07/12 12:35:22;;;;;;;6.05;5.75;;;42.40;33.70;;;;;;4877530;28;86996;-86
2021/07/12 12:37:49;;;;;;;6.00;5.70;;;42.60;34.90;;;;;;4917114;28;87086;-87
2021/07/12 12:40:19;;;;;;;5.97;5.68;;;42.00;34.20;;;;;;4902896;28;88240;-90
2021/07/12 12:42:47;;;;;;;6.20;5.90;;;41.60;33.40;;;;;;4913198;28;87046;-86
2021/07/12 12:45:26;;;;;;;5.80;5.60;;;41.10;34.10;;;;;;4902833;28;87016;-86
2021/07/12 12:47:52;;;;;;;;;;;41.60;34.10;;;;;;4900638;28;86317;-86
2021/07/12 12:50:18;;;;;;;5.95;5.65;;;42.10;33.80;;;;;;4905293;28;87353;-86
2021/07/12 12:52:44;;;;;;;5.82;5.47;;;41.80;33.80;;;;;;4902819;28;87484;-85
2021/07/12 12:55:13;;;;;;;5.55;5.25;;;41.40;34.10;;;;;;4902774;28;88095;-87
2021/07/12 12:57:47;;;;;;;6.28;5.88;;;40.80;35.30;;;;;;4920949;28;87101;-86
2021/07/12 13:00:17;;;;;;;5.88;5.53;;;40.60;34.80;;;;;;4901533;28;86911;-86
2021/07/12 13:02:48;;;;;;;7.88;7.28;;;39.40;36.00;;;;;;4911752;28;87462;-86
2021/07/12 13:05:17;;;;;;;6.35;5.95;;;38.30;37.70;;;;;;4909246;28;86879;-86
2021/07/12 13:07:49;;;;;;;5.70;5.40;;;38.10;38.00;;;;;;4908575;28;86949;-86
2021/07/12 13:10:27;;;;;;;5.97;5.60;;;38.30;38.10;;;;;;4900077;28;87273;-88
2021/07/12 13:13:11;;;;;;;5.82;5.38;;;38.50;37.50;;;;;;4904291;28;86763;-86
2021/07/12 13:15:38;;;;;;;5.50;5.20;;;38.90;37.90;;;;;;4902857;28;87014;-85
2021/07/12 13:18:09;;;;;;;5.60;5.30;;;38.70;36.80;;;;;;4907000;28;86922;-85
2021/07/12 13:20:42;;;;;;;5.55;5.25;;;38.40;36.70;;;;;;4911775;28;88696;-87
2021/07/12 13:23:08;;;;;;;5.32;5.07;;;38.30;37.00;;;;;;4905384;28;88392;-85
2021/07/12 13:25:42;;;;;;;5.53;5.13;;;38.10;37.40;;;;;;4906882;28;86888;-86
2021/07/12 13:28:16;;;;;;;5.40;5.07;;;38.10;37.40;;;;;;4905488;28;87192;-87
2021/07/12 13:30:48;;;;;;;5.40;5.10;;;38.40;36.10;;;;;;4904687;28;87110;-86
2021/07/12 13:33:18;;;;;;;5.38;5.07;;;38.90;36.40;;;;;;4895881;28;86986;-85
2021/07/12 13:35:46;;;;;;;3.58;3.28;;;39.00;36.20;;;;;;4917151;28;86785;-87
2021/07/12 13:38:16;;;;;;;5.60;5.30;;;39.20;36.20;;;;;;4907121;28;86179;-88
2021/07/12 13:40:42;;;;;;;5.32;4.82;;;39.30;34.90;;;;;;4902055;28;87520;-85
2021/07/12 13:43:09;;;;;;;5.72;5.22;;;39.20;36.80;;;;;;4908959;28;86967;-88
2021/07/12 13:45:35;;;;;;;5.65;5.35;;;39.30;37.40;;;;;;4907399;28;87919;-87
2021/07/12 13:48:03;;;;;;;5.47;5.07;;;39.10;37.50;;;;;;4914297;28;87128;-86
2021/07/12 13:50:45;;;;;;;5.53;5.22;;;39.20;36.60;;;;;;4896189;28;88787;-86
2021/07/12 13:53:11;;;;;;;3.67;3.47;;;39.60;36.70;;;;;;4905955;28;87334;-87
2021/07/12 13:55:37;;;;;;;5.45;5.15;;;39.00;36.90;;;;;;4907793;28;86919;-86
2021/07/12 13:58:04;;;;;;;5.93;5.53;;;39.00;37.90;;;;;;4910667;28;86949;-86
2021/07/12 14:00:31;;;;;;;5.22;5.03;;;38.90;38.60;;;;;;4913114;28;88184;-88
2021/07/12 14:02:57;;;;;;;5.70;5.40;;;38.80;38.40;;;;;;4911135;28;88331;-86
2021/07/12 14:05:23;;;;;;;5.35;5.05;;;38.60;39.10;;;;;;4908634;28;87095;-86
2021/07/12 14:07:49;;;;;;;5.63;5.32;;;38.60;39.40;;;;;;4905054;28;87065;-87
2021/07/12 14:10:18;;;;;;;5.60;5.30;;;38.70;41.10;;;;;;4903914;28;89215;-89
2021/07/12 14:12:45;;;;;;;5.70;5.40;;;39.00;41.70;;;;;;4903094;28;87404;-86
2021/07/12 14:15:18;;;;;;;5.85;5.55;;;38.90;42.90;;;;;;4903706;28;86640;-87
2021/07/12 14:17:44;;;;;;;5.68;5.22;;;38.80;42.80;;;;;;4905010;28;86916;-86
2021/07/12 14:20:11;;;;;;;5.43;5.13;;;38.50;43.40;;;;;;4905534;28;87371;-87
2021/07/12 14:22:37;;;;;;;5.65;5.35;;;38.50;43.90;;;;;;4906122;28;87934;-86
2021/07/12 14:25:05;;;;;;;5.50;5.20;;;38.30;43.90;;;;;;4906219;28;86896;-87
2021/07/12 14:27:30;;;;;;;5.30;5.05;;;38.20;43.80;;;;;;4903665;28;86438;-87
2021/07/12 14:29:56;;;;;;;5.82;5.53;;;38.10;43.80;;;;;;4901996;28;86848;-86
2021/07/12 14:32:22;;;;;;;5.88;5.28;;;38.20;42.60;;;;;;4906338;28;87007;-88
2021/07/12 14:34:51;;;;;;;4.82;4.57;;;38.00;42.30;;;;;;4907420;28;88015;-86
2021/07/12 14:37:17;;;;;;;5.55;5.25;;;37.60;41.90;;;;;;4891354;28;87149;-86
2021/07/12 14:39:43;;;;;;;5.25;4.95;;;37.20;42.40;;;;;;4914333;28;86984;-87
2021/07/12 14:42:25;;;;;;;5.10;4.80;;;36.50;43.50;;;;;;4925637;28;87421;-86
2021/07/12 14:44:51;;;;;;;5.32;4.82;;;36.40;44.70;;;;;;4924780;28;87012;-87
2021/07/12 14:47:17;;;;;;;5.25;4.95;;;36.20;44.20;;;;;;4915869;28;87741;-87
2021/07/12 14:49:42;;;;;;;5.30;5.00;;;36.20;44.30;;;;;;4917676;28;86522;-87
2021/07/12 14:52:09;;;;;;;4.68;4.43;;;36.00;44.30;;;;;;4907042;28;87939;-86
2021/07/12 14:54:35;;;;;;;5.10;4.72;;;36.00;44.30;;;;;;4906723;28;86972;-88
2021/07/12 14:57:01;;;;;;;4.85;4.57;;;35.80;43.60;;;;;;4905993;28;87174;-87
2021/07/12 14:59:27;;;;;;;4.95;4.65;;;35.30;42.30;;;;;;4908255;28;89256;-87
2021/07/12 15:01:53;;;;;;;4.78;4.47;;;35.10;43.30;;;;;;4899728;28;87951;-90
2021/07/12 15:04:18;;;;;;;4.80;4.50;;;35.10;43.80;;;;;;4906019;28;86898;-87
2021/07/12 15:06:44;;;;;;;5.10;4.80;;;35.10;43.60;;;;;;4909637;28;86950;-90
2021/07/12 15:09:10;;;;;;;4.95;4.65;;;34.90;44.00;;;;;;4913296;28;87820;-86
2021/07/12 15:11:36;;;;;;;4.60;4.40;;;34.60;43.20;;;;;;4917705;28;87457;-88
2021/07/12 15:14:02;;;;;;;4.65;4.40;;;;;;;;;;4905589;28;87023;-87
2021/07/12 15:16:28;;;;;;;5.03;4.70;;;;;;;;;;4920084;28;86194;-86
2021/07/12 15:18:53;;;;;;;5.18;4.85;;;33.30;45.20;;;;;;4907189;28;86756;-85
2021/07/12 15:21:20;;;;;;;4.72;4.53;;;;;;;;;;4906339;28;87677;-87
2021/07/12 15:23:46;;;;;;;5.15;4.70;;;;;;;;;;4909725;28;87782;-89
2021/07/12 15:26:11;;;;;;;4.68;4.38;;;32.80;45.50;;;;;;4910977;28;86976;-86
2021/07/12 15:28:37;;;;;;;5.20;4.75;;;32.90;46.50;;;;;;4910393;28;86871;-86
2021/07/12 15:31:03;;;;;;;4.82;4.53;;;32.70;46.20;;;;;;4914758;28;87410;-86
2021/07/12 15:33:29;;;;;;;4.93;4.63;;;32.60;46.70;;;;;;4930066;28;86614;-89
2021/07/12 15:35:55;;;;;;;4.90;4.60;;;32.60;47.30;;;;;;4923916;28;87158;-88
2021/07/12 15:38:21;;;;;;;5.15;4.68;;;;;;;;;;4904291;28;87439;-86
2021/07/12 15:40:48;;;;;;;5.65;5.10;;;32.40;49.70;;;;;;4908607;28;86551;-86
2021/07/12 15:43:14;;;;;;;5.50;5.10;;;32.10;52.00;;;;;;4919962;28;86984;-86